createdAt,value
2018-11-28T05:03:13.462Z,95.10
2018-11-28T05:05:36.174Z,95.10
2018-11-28T05:07:58.934Z,95.10
2018-11-28T05:10:24.415Z,95.10
2018-11-28T05:12:47.166Z,95.10
2018-11-28T06:01:26.773Z,95.40
2018-11-28T06:03:49.437Z,95.50
2018-11-28T06:06:12.232Z,95.50
2018-11-28T06:08:34.937Z,95.40
2018-11-28T06:10:57.584Z,95.30
2018-11-28T06:13:20.247Z,95.30
2018-11-28T07:01:59.395Z,93.20
2018-11-28T07:04:22.061Z,93.20
2018-11-28T07:06:44.714Z,93.20
2018-11-28T07:09:07.923Z,93.00
2018-11-28T07:11:30.595Z,92.90
2018-11-28T07:13:53.229Z,92.70
2018-11-28T08:02:35.077Z,90.70
2018-11-28T08:04:57.755Z,90.80
2018-11-28T08:07:20.421Z,90.60
2018-11-28T08:09:43.133Z,90.00
2018-11-28T08:12:05.958Z,90.40
2018-11-28T08:14:28.614Z,90.50
2018-11-28T09:00:26.921Z,84.70
2018-11-28T09:02:51.019Z,83.40
2018-11-28T09:05:14.272Z,82.70
2018-11-28T09:07:37.331Z,83.20
2018-11-28T09:10:00.375Z,82.60
2018-11-28T09:12:23.324Z,82.90
2018-11-28T09:14:46.972Z,82.60
2018-11-28T10:00:22.324Z,70.90
2018-11-28T10:02:45.059Z,72.20
2018-11-28T10:05:13.717Z,72.00
2018-11-28T10:07:36.385Z,72.90
2018-11-28T10:10:06.753Z,74.10
2018-11-28T10:12:29.450Z,74.60
2018-11-28T10:14:52.138Z,75.10
2018-11-28T10:20:20.227Z,74.50
2018-11-28T10:22:43.181Z,72.90
2018-11-28T10:25:07.435Z,73.30
2018-11-28T10:27:30.144Z,74.40
2018-11-28T10:29:52.872Z,73.60
2018-11-28T10:32:15.549Z,73.70
2018-11-28T10:34:38.219Z,72.50
2018-11-28T10:37:00.900Z,69.70
2018-11-28T10:39:23.653Z,71.00
2018-11-28T10:41:46.354Z,72.10
2018-11-28T10:44:09.038Z,70.80
2018-11-28T10:46:31.739Z,70.60
2018-11-28T10:48:54.470Z,71.30
2018-11-28T10:51:17.133Z,67.60
2018-11-28T10:53:39.858Z,66.00
2018-11-28T10:56:02.546Z,64.90
2018-11-28T10:58:25.333Z,65.10
2018-11-28T11:00:53.951Z,65.90
2018-11-28T11:03:22.064Z,61.30
2018-11-28T11:05:50.306Z,60.70
2018-11-28T11:08:18.902Z,61.20
2018-11-28T11:10:47.289Z,60.00
2018-11-28T11:13:15.789Z,59.00
2018-11-28T12:01:55.433Z,67.10
2018-11-28T12:04:18.130Z,67.00
2018-11-28T12:06:40.786Z,65.00
2018-11-28T12:09:04.243Z,65.50
2018-11-28T12:11:26.957Z,64.50
2018-11-28T12:13:49.617Z,64.20
2018-11-28T13:02:30.796Z,54.30
2018-11-28T13:04:53.521Z,55.20
2018-11-28T13:07:16.259Z,52.70
2018-11-28T13:09:38.949Z,52.40
2018-11-28T13:12:01.667Z,52.70
2018-11-28T13:14:24.357Z,53.70
2018-11-28T14:00:13.023Z,67.80
2018-11-28T14:02:35.843Z,69.20
2018-11-28T14:04:58.496Z,70.20
2018-11-28T14:07:21.239Z,71.00
2018-11-28T14:09:43.986Z,71.60
2018-11-28T14:12:06.681Z,72.10
2018-11-28T14:14:29.375Z,72.60
2018-11-28T15:00:21.474Z,79.10
2018-11-28T15:02:44.817Z,79.60
2018-11-28T15:05:17.985Z,79.80
2018-11-28T15:07:40.622Z,80.40
2018-11-28T15:10:03.445Z,81.10
2018-11-28T15:12:27.277Z,81.20
2018-11-28T15:14:49.993Z,81.90
2018-11-28T16:00:24.578Z,86.30
2018-11-28T16:02:47.274Z,86.30
2018-11-28T16:05:10.002Z,86.50
2018-11-28T16:07:32.657Z,86.40
2018-11-28T16:10:01.122Z,86.60
2018-11-28T16:12:23.857Z,86.60
2018-11-28T16:14:46.563Z,86.90
2018-11-28T17:00:24.399Z,90.10
2018-11-28T17:02:47.185Z,90.30
2018-11-28T17:05:17.026Z,90.20
2018-11-28T17:07:40.002Z,90.30
2018-11-28T18:15:14.178Z,90.30
2018-11-28T18:17:36.909Z,90.30
2018-11-28T18:19:59.609Z,90.30
2018-11-28T18:22:22.292Z,90.30
2018-11-28T18:24:44.971Z,90.70
2018-11-28T18:27:07.634Z,90.30
2018-11-28T18:29:30.283Z,90.50
2018-11-28T19:02:37.940Z,91.50
2018-11-28T19:05:00.697Z,91.50
2018-11-28T19:07:23.361Z,91.50
2018-11-28T19:09:52.790Z,91.40
2018-11-28T19:12:15.457Z,91.50
2018-11-28T19:14:38.298Z,91.50
2018-11-28T20:00:16.337Z,92.10
2018-11-28T20:02:39.192Z,92.00
2018-11-28T20:05:01.892Z,92.00
2018-11-28T20:07:27.487Z,91.90
2018-11-28T20:09:54.698Z,91.90
2018-11-28T20:12:17.373Z,91.90
2018-11-28T20:14:40.054Z,91.90
2018-11-28T21:00:21.754Z,92.20
2018-11-28T21:02:46.757Z,92.10
2018-11-28T21:05:10.354Z,92.00
2018-11-28T21:07:33.268Z,92.00
2018-11-28T21:10:00.842Z,92.00
2018-11-28T21:12:23.563Z,91.90
2018-11-28T21:14:46.329Z,91.90
